sensor_id;sensor_type;location;lat;lon;timestamp;pressure;altitude;pressure_sealevel;temperature;humidity
50011;BME280;35899;50.352;19.390;2022-07-18T00:02:16;98747.94;;;11.54;63.65
50011;BME280;35899;50.352;19.390;2022-07-18T00:04:44;98751.10;;;11.52;63.89
50011;BME280;35899;50.352;19.390;2022-07-18T00:07:12;98752.88;;;11.52;64.15
50011;BME280;35899;50.352;19.390;2022-07-18T00:09:40;98751.02;;;11.54;64.35
50011;BME280;35899;50.352;19.390;2022-07-18T00:12:09;98747.65;;;11.59;64.77
50011;BME280;35899;50.352;19.390;2022-07-18T00:14:37;98750.07;;;11.55;64.32
50011;BME280;35899;50.352;19.390;2022-07-18T00:17:05;98747.38;;;11.49;64.50
50011;BME280;35899;50.352;19.390;2022-07-18T00:19:33;98744.13;;;11.46;64.55
50011;BME280;35899;50.352;19.390;2022-07-18T00:22:00;98748.79;;;11.41;64.52
50011;BME280;35899;50.352;19.390;2022-07-18T00:24:28;98746.02;;;11.37;64.63
50011;BME280;35899;50.352;19.390;2022-07-18T00:26:55;98747.84;;;11.34;64.71
50011;BME280;35899;50.352;19.390;2022-07-18T00:29:22;98749.61;;;11.34;64.91
50011;BME280;35899;50.352;19.390;2022-07-18T00:31:50;98746.83;;;11.30;65.03
50011;BME280;35899;50.352;19.390;2022-07-18T00:34:17;98742.36;;;11.25;65.08
50011;BME280;35899;50.352;19.390;2022-07-18T00:36:44;98738.94;;;11.24;65.27
50011;BME280;35899;50.352;19.390;2022-07-18T00:39:11;98739.41;;;11.24;65.45
50011;BME280;35899;50.352;19.390;2022-07-18T00:41:38;98745.16;;;11.22;65.42
50011;BME280;35899;50.352;19.390;2022-07-18T00:44:05;98742.27;;;11.19;65.35
50011;BME280;35899;50.352;19.390;2022-07-18T00:46:33;98747.27;;;11.15;65.20
50011;BME280;35899;50.352;19.390;2022-07-18T00:49:00;98747.91;;;11.11;65.37
50011;BME280;35899;50.352;19.390;2022-07-18T00:51:27;98740.20;;;11.10;65.45
50011;BME280;35899;50.352;19.390;2022-07-18T00:53:54;98745.60;;;11.07;65.53
50011;BME280;35899;50.352;19.390;2022-07-18T00:56:22;98739.19;;;11.05;65.90
50011;BME280;35899;50.352;19.390;2022-07-18T00:58:49;98740.39;;;11.00;66.15
50011;BME280;35899;50.352;19.390;2022-07-18T01:01:16;98739.38;;;10.95;66.19
50011;BME280;35899;50.352;19.390;2022-07-18T01:04:01;98736.76;;;10.88;66.34
50011;BME280;35899;50.352;19.390;2022-07-18T01:06:28;98739.61;;;10.83;66.52
50011;BME280;35899;50.352;19.390;2022-07-18T01:08:57;98737.20;;;10.80;66.77
50011;BME280;35899;50.352;19.390;2022-07-18T01:11:24;98734.41;;;10.83;67.12
50011;BME280;35899;50.352;19.390;2022-07-18T01:13:52;98730.98;;;10.83;66.97
50011;BME280;35899;50.352;19.390;2022-07-18T01:16:20;98734.41;;;10.83;67.06
50011;BME280;35899;50.352;19.390;2022-07-18T01:18:50;98737.01;;;10.83;66.98
50011;BME280;35899;50.352;19.390;2022-07-18T01:21:17;98734.52;;;10.89;67.32
50011;BME280;35899;50.352;19.390;2022-07-18T01:23:45;98732.02;;;10.94;67.49
50011;BME280;35899;50.352;19.390;2022-07-18T01:26:14;98737.44;;;10.99;67.57
50011;BME280;35899;50.352;19.390;2022-07-18T01:28:43;98733.34;;;11.02;67.73
50011;BME280;35899;50.352;19.390;2022-07-18T01:31:11;98733.52;;;11.06;67.70
50011;BME280;35899;50.352;19.390;2022-07-18T01:33:38;98734.73;;;11.07;67.81
50011;BME280;35899;50.352;19.390;2022-07-18T01:36:07;98727.33;;;11.08;67.75
50011;BME280;35899;50.352;19.390;2022-07-18T01:38:35;98734.09;;;11.11;67.76
50011;BME280;35899;50.352;19.390;2022-07-18T01:41:03;98728.52;;;11.10;67.60
50011;BME280;35899;50.352;19.390;2022-07-18T01:43:30;98726.86;;;11.09;67.56
50011;BME280;35899;50.352;19.390;2022-07-18T01:45:58;98728.16;;;11.09;67.67
50011;BME280;35899;50.352;19.390;2022-07-18T01:48:25;98724.34;;;11.07;67.41
50011;BME280;35899;50.352;19.390;2022-07-18T01:50:52;98727.69;;;10.95;66.91
50011;BME280;35899;50.352;19.390;2022-07-18T01:53:19;98725.90;;;10.88;67.12
50011;BME280;35899;50.352;19.390;2022-07-18T01:55:47;98719.22;;;10.84;67.15
50011;BME280;35899;50.352;19.390;2022-07-18T01:58:14;98722.28;;;10.84;67.44
50011;BME280;35899;50.352;19.390;2022-07-18T02:00:41;98721.42;;;10.83;67.58
50011;BME280;35899;50.352;19.390;2022-07-18T02:03:08;98718.75;;;10.78;67.17
50011;BME280;35899;50.352;19.390;2022-07-18T02:05:35;98721.88;;;10.68;66.92
50011;BME280;35899;50.352;19.390;2022-07-18T02:08:03;98726.77;;;10.59;66.75
50011;BME280;35899;50.352;19.390;2022-07-18T02:10:30;98722.02;;;10.51;66.67
50011;BME280;35899;50.352;19.390;2022-07-18T02:12:57;98728.92;;;10.43;66.76
50011;BME280;35899;50.352;19.390;2022-07-18T02:15:24;98728.44;;;10.36;67.05
50011;BME280;35899;50.352;19.390;2022-07-18T02:17:52;98724.00;;;10.39;67.66
50011;BME280;35899;50.352;19.390;2022-07-18T02:20:19;98729.58;;;10.40;67.74
50011;BME280;35899;50.352;19.390;2022-07-18T02:22:46;98727.97;;;10.37;67.71
50011;BME280;35899;50.352;19.390;2022-07-18T02:25:14;98728.91;;;10.36;67.60
50011;BME280;35899;50.352;19.390;2022-07-18T02:27:41;98730.38;;;10.33;67.50
50011;BME280;35899;50.352;19.390;2022-07-18T02:30:10;98723.19;;;10.29;67.47
50011;BME280;35899;50.352;19.390;2022-07-18T02:32:37;98723.45;;;10.25;67.70
50011;BME280;35899;50.352;19.390;2022-07-18T02:35:06;98721.41;;;10.23;67.90
50011;BME280;35899;50.352;19.390;2022-07-18T02:37:34;98723.26;;;10.21;67.91
50011;BME280;35899;50.352;19.390;2022-07-18T02:40:06;98720.91;;;10.16;67.71
50011;BME280;35899;50.352;19.390;2022-07-18T02:42:34;98722.91;;;10.11;67.69
50011;BME280;35899;50.352;19.390;2022-07-18T02:45:02;98726.16;;;10.07;67.85
50011;BME280;35899;50.352;19.390;2022-07-18T02:47:30;98735.78;;;10.05;67.74
50011;BME280;35899;50.352;19.390;2022-07-18T02:49:57;98732.68;;;9.98;67.66
50011;BME280;35899;50.352;19.390;2022-07-18T02:52:25;98729.75;;;9.89;67.68
50011;BME280;35899;50.352;19.390;2022-07-18T02:54:52;98730.09;;;9.83;67.65
50011;BME280;35899;50.352;19.390;2022-07-18T02:57:19;98728.95;;;9.79;67.87
50011;BME280;35899;50.352;19.390;2022-07-18T02:59:46;98731.20;;;9.86;68.54
50011;BME280;35899;50.352;19.390;2022-07-18T03:02:13;98730.34;;;9.94;69.00
50011;BME280;35899;50.352;19.390;2022-07-18T03:04:40;98731.33;;;9.91;68.53
50011;BME280;35899;50.352;19.390;2022-07-18T03:07:07;98733.77;;;9.94;68.63
50011;BME280;35899;50.352;19.390;2022-07-18T03:09:34;98736.83;;;9.94;68.59
50011;BME280;35899;50.352;19.390;2022-07-18T03:12:01;98735.14;;;9.93;68.53
50011;BME280;35899;50.352;19.390;2022-07-18T03:14:29;98737.81;;;9.91;68.33
50011;BME280;35899;50.352;19.390;2022-07-18T03:16:56;98734.78;;;9.92;68.27
50011;BME280;35899;50.352;19.390;2022-07-18T03:19:23;98734.98;;;9.96;68.37
50011;BME280;35899;50.352;19.390;2022-07-18T03:21:51;98739.44;;;10.01;68.41
50011;BME280;35899;50.352;19.390;2022-07-18T03:24:18;98736.97;;;10.07;68.54
50011;BME280;35899;50.352;19.390;2022-07-18T03:26:45;98745.08;;;10.16;68.57
50011;BME280;35899;50.352;19.390;2022-07-18T03:29:12;98741.42;;;10.21;68.36
50011;BME280;35899;50.352;19.390;2022-07-18T03:31:39;98743.12;;;10.29;68.57
50011;BME280;35899;50.352;19.390;2022-07-18T03:34:06;98753.02;;;10.38;68.56
50011;BME280;35899;50.352;19.390;2022-07-18T03:36:34;98749.59;;;10.45;68.30
50011;BME280;35899;50.352;19.390;2022-07-18T03:39:01;98751.02;;;10.50;68.31
50011;BME280;35899;50.352;19.390;2022-07-18T03:41:28;98749.55;;;10.53;68.23
50011;BME280;35899;50.352;19.390;2022-07-18T03:43:55;98752.06;;;10.62;68.17
50011;BME280;35899;50.352;19.390;2022-07-18T03:46:22;98748.20;;;10.69;67.99
50011;BME280;35899;50.352;19.390;2022-07-18T03:48:50;98744.72;;;10.78;68.06
50011;BME280;35899;50.352;19.390;2022-07-18T03:51:17;98753.47;;;10.91;68.10
50011;BME280;35899;50.352;19.390;2022-07-18T03:53:44;98752.25;;;10.96;67.75
50011;BME280;35899;50.352;19.390;2022-07-18T03:56:11;98756.72;;;11.02;67.79
50011;BME280;35899;50.352;19.390;2022-07-18T03:58:38;98760.91;;;11.11;67.84
50011;BME280;35899;50.352;19.390;2022-07-18T04:01:05;98764.82;;;11.19;67.90
50011;BME280;35899;50.352;19.390;2022-07-18T04:03:32;98756.30;;;11.24;67.82
50011;BME280;35899;50.352;19.390;2022-07-18T04:05:59;98765.67;;;11.33;67.98
50011;BME280;35899;50.352;19.390;2022-07-18T04:08:27;98764.00;;;11.40;67.89
50011;BME280;35899;50.352;19.390;2022-07-18T04:10:53;98768.65;;;11.49;68.02
50011;BME280;35899;50.352;19.390;2022-07-18T04:13:21;98778.11;;;11.64;68.21
50011;BME280;35899;50.352;19.390;2022-07-18T04:15:48;98775.78;;;11.74;68.21
50011;BME280;35899;50.352;19.390;2022-07-18T04:18:15;98776.61;;;11.89;68.36
50011;BME280;35899;50.352;19.390;2022-07-18T04:20:42;98774.38;;;12.04;68.36
50011;BME280;35899;50.352;19.390;2022-07-18T04:23:10;98774.53;;;12.23;68.38
50011;BME280;35899;50.352;19.390;2022-07-18T04:25:39;98779.31;;;12.43;68.44
50011;BME280;35899;50.352;19.390;2022-07-18T04:28:09;98772.38;;;12.57;68.56
50011;BME280;35899;50.352;19.390;2022-07-18T04:30:38;98766.09;;;12.66;68.38
50011;BME280;35899;50.352;19.390;2022-07-18T04:33:08;98767.41;;;12.79;68.58
50011;BME280;35899;50.352;19.390;2022-07-18T04:35:36;98762.70;;;12.91;68.31
50011;BME280;35899;50.352;19.390;2022-07-18T04:38:04;98766.00;;;13.01;68.34
50011;BME280;35899;50.352;19.390;2022-07-18T04:40:33;98767.27;;;13.08;68.43
50011;BME280;35899;50.352;19.390;2022-07-18T04:43:00;98761.73;;;13.13;68.45
50011;BME280;35899;50.352;19.390;2022-07-18T04:45:27;98760.48;;;13.18;68.66
50011;BME280;35899;50.352;19.390;2022-07-18T04:47:54;98754.32;;;13.19;68.52
50011;BME280;35899;50.352;19.390;2022-07-18T04:50:22;98763.25;;;13.22;68.54
50011;BME280;35899;50.352;19.390;2022-07-18T04:52:50;98766.01;;;13.26;68.59
50011;BME280;35899;50.352;19.390;2022-07-18T04:55:19;98756.48;;;13.33;68.67
50011;BME280;35899;50.352;19.390;2022-07-18T04:57:49;98754.79;;;13.39;68.37
50011;BME280;35899;50.352;19.390;2022-07-18T05:00:19;98754.70;;;13.46;68.58
50011;BME280;35899;50.352;19.390;2022-07-18T05:02:50;98760.98;;;13.56;68.66
50011;BME280;35899;50.352;19.390;2022-07-18T05:05:19;98756.78;;;13.66;68.62
50011;BME280;35899;50.352;19.390;2022-07-18T05:07:47;98757.64;;;13.73;68.43
50011;BME280;35899;50.352;19.390;2022-07-18T05:10:17;98756.19;;;13.81;68.36
50011;BME280;35899;50.352;19.390;2022-07-18T05:12:51;98754.48;;;13.93;68.23
50011;BME280;35899;50.352;19.390;2022-07-18T05:15:19;98754.55;;;14.04;68.10
50011;BME280;35899;50.352;19.390;2022-07-18T05:17:48;98749.88;;;14.15;68.08
50011;BME280;35899;50.352;19.390;2022-07-18T05:20:17;98754.06;;;14.23;68.04
50011;BME280;35899;50.352;19.390;2022-07-18T05:22:46;98754.41;;;14.19;68.07
50011;BME280;35899;50.352;19.390;2022-07-18T05:25:14;98747.75;;;14.15;68.06
50011;BME280;35899;50.352;19.390;2022-07-18T05:27:41;98751.29;;;14.14;68.05
50011;BME280;35899;50.352;19.390;2022-07-18T05:30:10;98750.12;;;14.18;68.20
50011;BME280;35899;50.352;19.390;2022-07-18T05:32:41;98753.75;;;14.28;68.36
50011;BME280;35899;50.352;19.390;2022-07-18T05:35:10;98751.55;;;14.40;68.42
50011;BME280;35899;50.352;19.390;2022-07-18T05:37:39;98749.57;;;14.50;68.35
50011;BME280;35899;50.352;19.390;2022-07-18T05:40:09;98755.52;;;14.52;68.33
50011;BME280;35899;50.352;19.390;2022-07-18T05:42:37;98755.14;;;14.51;68.31
50011;BME280;35899;50.352;19.390;2022-07-18T05:45:06;98756.45;;;14.51;68.32
50011;BME280;35899;50.352;19.390;2022-07-18T05:47:34;98763.30;;;14.59;68.48
50011;BME280;35899;50.352;19.390;2022-07-18T05:50:01;98765.85;;;14.72;68.39
50011;BME280;35899;50.352;19.390;2022-07-18T05:52:29;98756.27;;;14.83;68.58
50011;BME280;35899;50.352;19.390;2022-07-18T05:54:57;98753.34;;;15.05;68.57
50011;BME280;35899;50.352;19.390;2022-07-18T05:57:24;98750.28;;;15.28;68.70
50011;BME280;35899;50.352;19.390;2022-07-18T05:59:51;98748.16;;;15.50;68.80
50011;BME280;35899;50.352;19.390;2022-07-18T06:02:18;98750.92;;;15.77;68.84
50011;BME280;35899;50.352;19.390;2022-07-18T06:04:45;98743.87;;;15.94;68.54
50011;BME280;35899;50.352;19.390;2022-07-18T06:07:12;98748.14;;;15.95;68.34
50011;BME280;35899;50.352;19.390;2022-07-18T06:09:39;98749.48;;;15.90;68.09
50011;BME280;35899;50.352;19.390;2022-07-18T06:12:07;98750.55;;;15.81;67.91
50011;BME280;35899;50.352;19.390;2022-07-18T06:14:35;98752.22;;;15.88;67.89
50011;BME280;35899;50.352;19.390;2022-07-18T06:17:02;98750.40;;;16.06;68.20
50011;BME280;35899;50.352;19.390;2022-07-18T06:19:29;98757.85;;;16.21;68.19
50011;BME280;35899;50.352;19.390;2022-07-18T06:21:57;98756.98;;;16.38;67.95
50011;BME280;35899;50.352;19.390;2022-07-18T06:24:25;98752.29;;;16.53;67.58
50011;BME280;35899;50.352;19.390;2022-07-18T06:26:52;98754.84;;;16.70;67.66
50011;BME280;35899;50.352;19.390;2022-07-18T06:29:19;98757.63;;;16.89;67.81
50011;BME280;35899;50.352;19.390;2022-07-18T06:31:46;98751.92;;;17.05;67.26
50011;BME280;35899;50.352;19.390;2022-07-18T06:34:13;98751.33;;;17.23;67.28
50011;BME280;35899;50.352;19.390;2022-07-18T06:36:41;98754.49;;;17.32;66.96
50011;BME280;35899;50.352;19.390;2022-07-18T06:39:08;98756.66;;;17.27;66.79
50011;BME280;35899;50.352;19.390;2022-07-18T06:41:38;98756.42;;;17.30;66.97
50011;BME280;35899;50.352;19.390;2022-07-18T06:44:06;98757.36;;;17.34;66.92
50011;BME280;35899;50.352;19.390;2022-07-18T06:46:33;98756.17;;;17.48;67.18
50011;BME280;35899;50.352;19.390;2022-07-18T06:49:03;98756.12;;;17.69;67.06
50011;BME280;35899;50.352;19.390;2022-07-18T06:51:31;98757.77;;;17.86;66.70
50011;BME280;35899;50.352;19.390;2022-07-18T06:53:58;98756.36;;;17.97;66.40
50011;BME280;35899;50.352;19.390;2022-07-18T06:56:26;98756.94;;;18.10;66.30
50011;BME280;35899;50.352;19.390;2022-07-18T06:58:53;98761.69;;;18.26;66.22
50011;BME280;35899;50.352;19.390;2022-07-18T07:01:21;98754.23;;;18.41;66.51
50011;BME280;35899;50.352;19.390;2022-07-18T07:03:48;98756.80;;;18.56;66.13
50011;BME280;35899;50.352;19.390;2022-07-18T07:06:15;98750.29;;;18.70;66.31
50011;BME280;35899;50.352;19.390;2022-07-18T07:08:43;98750.73;;;18.85;65.85
50011;BME280;35899;50.352;19.390;2022-07-18T07:11:10;98747.19;;;19.00;65.18
50011;BME280;35899;50.352;19.390;2022-07-18T07:13:37;98749.66;;;19.11;64.93
50011;BME280;35899;50.352;19.390;2022-07-18T07:16:04;98749.88;;;19.28;64.07
50011;BME280;35899;50.352;19.390;2022-07-18T07:18:31;98757.16;;;19.44;62.87
50011;BME280;35899;50.352;19.390;2022-07-18T07:20:58;98755.52;;;19.57;61.07
50011;BME280;35899;50.352;19.390;2022-07-18T07:23:26;98751.53;;;19.66;60.34
50011;BME280;35899;50.352;19.390;2022-07-18T07:25:53;98751.61;;;19.70;58.71
50011;BME280;35899;50.352;19.390;2022-07-18T07:28:21;98755.95;;;19.76;58.23
50011;BME280;35899;50.352;19.390;2022-07-18T07:30:48;98756.13;;;19.88;58.14
50011;BME280;35899;50.352;19.390;2022-07-18T07:33:15;98754.89;;;19.96;57.20
50011;BME280;35899;50.352;19.390;2022-07-18T07:35:43;98757.92;;;20.01;55.75
50011;BME280;35899;50.352;19.390;2022-07-18T07:38:10;98752.88;;;20.08;55.86
50011;BME280;35899;50.352;19.390;2022-07-18T07:40:39;98747.85;;;20.15;55.30
50011;BME280;35899;50.352;19.390;2022-07-18T07:43:09;98756.91;;;20.16;54.79
50011;BME280;35899;50.352;19.390;2022-07-18T07:45:38;98748.61;;;20.25;54.45
50011;BME280;35899;50.352;19.390;2022-07-18T07:48:07;98756.55;;;20.29;53.76
50011;BME280;35899;50.352;19.390;2022-07-18T07:50:34;98745.72;;;20.32;53.53
50011;BME280;35899;50.352;19.390;2022-07-18T07:53:02;98745.64;;;20.42;53.92
50011;BME280;35899;50.352;19.390;2022-07-18T07:55:29;98740.47;;;20.54;53.84
50011;BME280;35899;50.352;19.390;2022-07-18T07:57:56;98736.37;;;20.69;53.39
50011;BME280;35899;50.352;19.390;2022-07-18T08:00:23;98737.59;;;20.79;52.80
50011;BME280;35899;50.352;19.390;2022-07-18T08:03:04;98734.86;;;20.89;52.02
50011;BME280;35899;50.352;19.390;2022-07-18T08:05:35;98733.86;;;20.90;50.69
50011;BME280;35899;50.352;19.390;2022-07-18T08:08:05;98730.80;;;20.99;51.40
50011;BME280;35899;50.352;19.390;2022-07-18T08:10:33;98731.20;;;21.08;50.28
50011;BME280;35899;50.352;19.390;2022-07-18T08:13:00;98732.69;;;21.11;49.69
50011;BME280;35899;50.352;19.390;2022-07-18T08:15:28;98735.20;;;21.16;49.54
50011;BME280;35899;50.352;19.390;2022-07-18T08:17:55;98726.52;;;21.28;49.94
50011;BME280;35899;50.352;19.390;2022-07-18T08:20:22;98730.06;;;21.41;50.41
50011;BME280;35899;50.352;19.390;2022-07-18T08:25:25;98726.17;;;21.53;48.75
50011;BME280;35899;50.352;19.390;2022-07-18T08:27:54;98719.44;;;21.59;48.33
50011;BME280;35899;50.352;19.390;2022-07-18T08:30:21;98729.05;;;21.64;48.23
50011;BME280;35899;50.352;19.390;2022-07-18T08:32:48;98722.95;;;21.67;48.07
50011;BME280;35899;50.352;19.390;2022-07-18T08:35:16;98728.09;;;21.73;47.75
50011;BME280;35899;50.352;19.390;2022-07-18T08:37:43;98733.08;;;21.80;47.92
50011;BME280;35899;50.352;19.390;2022-07-18T08:40:10;98727.16;;;21.91;47.52
50011;BME280;35899;50.352;19.390;2022-07-18T08:42:37;98728.53;;;22.07;47.59
50011;BME280;35899;50.352;19.390;2022-07-18T08:47:34;98731.69;;;22.11;45.96
50011;BME280;35899;50.352;19.390;2022-07-18T08:50:03;98733.83;;;22.11;45.54
50011;BME280;35899;50.352;19.390;2022-07-18T08:52:32;98731.03;;;22.17;45.51
50011;BME280;35899;50.352;19.390;2022-07-18T08:55:01;98726.56;;;22.21;45.17
50011;BME280;35899;50.352;19.390;2022-07-18T08:57:29;98729.23;;;22.25;45.23
50011;BME280;35899;50.352;19.390;2022-07-18T08:59:56;98723.48;;;22.30;45.10
50011;BME280;35899;50.352;19.390;2022-07-18T09:02:26;98733.91;;;22.36;45.69
50011;BME280;35899;50.352;19.390;2022-07-18T09:04:54;98730.75;;;22.44;44.95
50011;BME280;35899;50.352;19.390;2022-07-18T09:07:29;98728.95;;;22.45;44.77
50011;BME280;35899;50.352;19.390;2022-07-18T09:10:00;98732.27;;;22.47;44.17
50011;BME280;35899;50.352;19.390;2022-07-18T09:12:29;98731.25;;;22.48;43.18
50011;BME280;35899;50.352;19.390;2022-07-18T09:15:04;98732.27;;;22.47;43.45
50011;BME280;35899;50.352;19.390;2022-07-18T09:17:34;98731.75;;;22.56;43.63
50011;BME280;35899;50.352;19.390;2022-07-18T09:20:11;98719.69;;;22.61;43.72
50011;BME280;35899;50.352;19.390;2022-07-18T09:22:43;98725.30;;;22.75;43.84
50011;BME280;35899;50.352;19.390;2022-07-18T09:25:18;98720.03;;;22.83;43.04
50011;BME280;35899;50.352;19.390;2022-07-18T09:27:50;98714.55;;;22.93;42.89
50011;BME280;35899;50.352;19.390;2022-07-18T09:30:26;98722.17;;;23.08;43.57
50011;BME280;35899;50.352;19.390;2022-07-18T09:35:36;98722.63;;;23.24;42.38
50011;BME280;35899;50.352;19.390;2022-07-18T09:38:07;98720.45;;;23.40;43.21
50011;BME280;35899;50.352;19.390;2022-07-18T09:40:39;98716.58;;;23.51;42.79
50011;BME280;35899;50.352;19.390;2022-07-18T09:43:11;98717.34;;;23.68;43.09
50011;BME280;35899;50.352;19.390;2022-07-18T09:45:44;98721.59;;;23.85;42.48
50011;BME280;35899;50.352;19.390;2022-07-18T09:48:18;98711.45;;;23.93;41.90
50011;BME280;35899;50.352;19.390;2022-07-18T09:50:59;98712.44;;;23.96;41.68
50011;BME280;35899;50.352;19.390;2022-07-18T09:53:31;98711.09;;;24.00;41.03
50011;BME280;35899;50.352;19.390;2022-07-18T09:56:05;98714.08;;;24.01;41.11
50011;BME280;35899;50.352;19.390;2022-07-18T09:58:40;98709.88;;;24.11;41.07
50011;BME280;35899;50.352;19.390;2022-07-18T10:01:10;98707.86;;;24.13;40.31
50011;BME280;35899;50.352;19.390;2022-07-18T10:03:38;98711.64;;;24.18;40.23
50011;BME280;35899;50.352;19.390;2022-07-18T10:06:05;98713.75;;;24.23;40.26
50011;BME280;35899;50.352;19.390;2022-07-18T10:08:34;98714.91;;;24.52;40.85
50011;BME280;35899;50.352;19.390;2022-07-18T10:11:03;98705.05;;;24.98;40.69
50011;BME280;35899;50.352;19.390;2022-07-18T10:13:34;98708.30;;;25.39;39.41
50011;BME280;35899;50.352;19.390;2022-07-18T10:16:02;98714.02;;;25.61;38.29
50011;BME280;35899;50.352;19.390;2022-07-18T10:18:34;98715.27;;;25.91;38.09
50011;BME280;35899;50.352;19.390;2022-07-18T10:23:40;98714.41;;;26.52;36.50
50011;BME280;35899;50.352;19.390;2022-07-18T10:26:18;98712.64;;;26.70;36.46
50011;BME280;35899;50.352;19.390;2022-07-18T10:31:33;98705.61;;;27.96;35.26
50011;BME280;35899;50.352;19.390;2022-07-18T10:39:26;98700.33;;;28.22;33.47
50011;BME280;35899;50.352;19.390;2022-07-18T10:44:40;98694.83;;;28.51;33.03
50011;BME280;35899;50.352;19.390;2022-07-18T10:47:10;98702.12;;;28.93;33.50
50011;BME280;35899;50.352;19.390;2022-07-18T11:00:37;98688.34;;;31.38;30.46
50011;BME280;35899;50.352;19.390;2022-07-18T11:03:07;98686.39;;;31.64;29.69
50011;BME280;35899;50.352;19.390;2022-07-18T11:08:16;98686.02;;;32.30;29.06
50011;BME280;35899;50.352;19.390;2022-07-18T11:16:09;98679.80;;;34.29;28.18
50011;BME280;35899;50.352;19.390;2022-07-18T11:26:38;98657.84;;;35.52;24.22
50011;BME280;35899;50.352;19.390;2022-07-18T11:29:12;98664.28;;;35.97;24.53
50011;BME280;35899;50.352;19.390;2022-07-18T11:31:55;98661.38;;;36.69;24.28
50011;BME280;35899;50.352;19.390;2022-07-18T11:34:24;98654.48;;;37.46;24.66
50011;BME280;35899;50.352;19.390;2022-07-18T11:36:52;98665.65;;;37.05;23.72
50011;BME280;35899;50.352;19.390;2022-07-18T11:39:30;98662.14;;;36.64;23.13
50011;BME280;35899;50.352;19.390;2022-07-18T11:41:58;98659.37;;;36.54;23.08
50011;BME280;35899;50.352;19.390;2022-07-18T11:44:27;98656.72;;;37.02;23.02
50011;BME280;35899;50.352;19.390;2022-07-18T11:47:08;98655.12;;;37.69;23.00
50011;BME280;35899;50.352;19.390;2022-07-18T11:49:35;98661.45;;;38.57;22.58
50011;BME280;35899;50.352;19.390;2022-07-18T11:52:03;98665.21;;;39.64;21.63
50011;BME280;35899;50.352;19.390;2022-07-18T11:54:31;98649.63;;;40.17;20.75
50011;BME280;35899;50.352;19.390;2022-07-18T11:56:59;98648.86;;;40.12;20.31
50011;BME280;35899;50.352;19.390;2022-07-18T11:59:45;98645.40;;;40.03;19.26
50011;BME280;35899;50.352;19.390;2022-07-18T12:02:12;98652.44;;;40.07;19.51
50011;BME280;35899;50.352;19.390;2022-07-18T12:04:39;98652.00;;;39.95;20.22
50011;BME280;35899;50.352;19.390;2022-07-18T12:07:25;98648.77;;;39.90;20.35
50011;BME280;35899;50.352;19.390;2022-07-18T12:09:53;98659.98;;;40.15;19.92
50011;BME280;35899;50.352;19.390;2022-07-18T12:12:22;98650.39;;;39.88;19.39
50011;BME280;35899;50.352;19.390;2022-07-18T12:14:55;98652.18;;;39.61;19.65
50011;BME280;35899;50.352;19.390;2022-07-18T12:17:27;98646.56;;;39.47;19.97
50011;BME280;35899;50.352;19.390;2022-07-18T12:20:15;98655.09;;;39.15;19.67
50011;BME280;35899;50.352;19.390;2022-07-18T12:23:02;98644.34;;;38.77;20.12
50011;BME280;35899;50.352;19.390;2022-07-18T12:25:41;98642.89;;;39.10;20.52
50011;BME280;35899;50.352;19.390;2022-07-18T12:28:17;98634.84;;;39.52;20.52
50011;BME280;35899;50.352;19.390;2022-07-18T12:30:46;98640.88;;;39.44;20.78
50011;BME280;35899;50.352;19.390;2022-07-18T12:33:14;98635.66;;;41.12;19.76
50011;BME280;35899;50.352;19.390;2022-07-18T12:35:41;98641.02;;;40.98;18.86
50011;BME280;35899;50.352;19.390;2022-07-18T12:38:13;98634.73;;;40.73;18.81
50011;BME280;35899;50.352;19.390;2022-07-18T12:41:00;98627.20;;;40.01;18.93
50011;BME280;35899;50.352;19.390;2022-07-18T12:43:37;98630.80;;;39.39;19.64
50011;BME280;35899;50.352;19.390;2022-07-18T12:46:09;98634.02;;;39.57;19.66
50011;BME280;35899;50.352;19.390;2022-07-18T12:48:38;98629.91;;;39.02;19.57
50011;BME280;35899;50.352;19.390;2022-07-18T12:51:07;98618.56;;;39.47;19.15
50011;BME280;35899;50.352;19.390;2022-07-18T12:53:37;98628.47;;;39.15;18.71
50011;BME280;35899;50.352;19.390;2022-07-18T12:56:05;98621.00;;;38.76;19.72
50011;BME280;35899;50.352;19.390;2022-07-18T12:58:33;98625.36;;;38.61;20.02
50011;BME280;35899;50.352;19.390;2022-07-18T13:01:00;98623.98;;;39.52;19.56
50011;BME280;35899;50.352;19.390;2022-07-18T13:03:28;98614.50;;;40.84;18.74
50011;BME280;35899;50.352;19.390;2022-07-18T13:05:55;98613.05;;;41.76;17.48
50011;BME280;35899;50.352;19.390;2022-07-18T13:08:22;98609.78;;;41.93;17.76
50011;BME280;35899;50.352;19.390;2022-07-18T13:10:49;98611.53;;;42.35;17.60
50011;BME280;35899;50.352;19.390;2022-07-18T13:13:17;98619.85;;;43.30;17.06
50011;BME280;35899;50.352;19.390;2022-07-18T13:15:44;98617.98;;;42.26;17.61
50011;BME280;35899;50.352;19.390;2022-07-18T13:18:11;98615.89;;;43.08;17.04
50011;BME280;35899;50.352;19.390;2022-07-18T13:20:40;98609.30;;;43.85;16.77
50011;BME280;35899;50.352;19.390;2022-07-18T13:23:07;98613.80;;;43.56;17.25
50011;BME280;35899;50.352;19.390;2022-07-18T13:25:36;98613.70;;;44.06;17.04
50011;BME280;35899;50.352;19.390;2022-07-18T13:28:04;98605.29;;;45.25;16.28
50011;BME280;35899;50.352;19.390;2022-07-18T13:30:30;98617.76;;;45.66;16.53
50011;BME280;35899;50.352;19.390;2022-07-18T13:32:58;98605.50;;;44.17;16.36
50011;BME280;35899;50.352;19.390;2022-07-18T13:35:25;98612.20;;;42.60;17.11
50011;BME280;35899;50.352;19.390;2022-07-18T13:37:52;98597.78;;;41.56;17.33
50011;BME280;35899;50.352;19.390;2022-07-18T13:40:19;98599.37;;;40.15;18.23
50011;BME280;35899;50.352;19.390;2022-07-18T13:42:46;98605.73;;;39.03;18.91
50011;BME280;35899;50.352;19.390;2022-07-18T13:45:13;98598.28;;;38.23;20.29
50011;BME280;35899;50.352;19.390;2022-07-18T13:47:42;98594.74;;;37.76;20.80